Miniplon — FIDV — position and weather

sailwx.info

Track history (hours):
 
Tides and Currents Weather Stations Pressure Air Temp Water Temp Dewpoint Dewpoint Depression Visibility Wind Speed Wind Dir Waves Ship Positions

Miniplon

Last reported at 2016-Jun-29 23:31 UTC. Time now 2016-Jun-29 23:46 UTC.
Position N 46°30' W 001°47'.

Type: SAR. MMSI: 228024600.

Date/timePositionNaut miles runAvg speedWind from/ knotsBaromVisibWave heightAir tempDewpointWater temp
2016-Jun-29 23:31N 46°30' W 001°47'0 0.0
2016-Jun-29 22:31N 46°30' W 001°47'0 0.0
2016-Jun-29 21:31N 46°30' W 001°47'0 0.0
2016-Jun-29 20:31N 46°30' W 001°47'0 0.0
2016-Jun-29 19:31N 46°30' W 001°47'0 0.0
2016-Jun-29 18:31N 46°30' W 001°47'0 0.0
2016-Jun-29 17:31N 46°30' W 001°47'0 0.0
2016-Jun-29 16:31N 46°30' W 001°47'0 0.0
2016-Jun-29 15:31N 46°30' W 001°47'0 0.0
2016-Jun-29 14:31N 46°30' W 001°47'0 0.0
2016-Jun-29 13:31N 46°30' W 001°47'0 0.0
2016-Jun-29 12:31N 46°30' W 001°47'0 0.0
2016-Jun-29 11:31N 46°30' W 001°47'0 0.0
2016-Jun-29 10:31N 46°30' W 001°47'0 0.0
2016-Jun-29 09:28N 46°30' W 001°47'0 0.0
2016-Jun-29 08:31N 46°30' W 001°47'0 0.0
2016-Jun-29 07:31N 46°30' W 001°47'0 0.0
2016-Jun-29 06:25N 46°30' W 001°47'0 0.0
2016-Jun-29 05:31N 46°30' W 001°47'0 0.0
2016-Jun-29 04:31N 46°30' W 001°47'0 0.0
2016-Jun-29 03:31N 46°30' W 001°47'0 0.0
2016-Jun-29 02:32N 46°30' W 001°47'0 0.0
2016-Jun-29 01:32N 46°30' W 001°47'0 0.0
2016-Jun-29 00:32N 46°30' W 001°47'0 0.0
2016-Jun-28 23:32N 46°30' W 001°47'0 0.0
2016-Jun-28 22:32N 46°30' W 001°47'0 0.0
2016-Jun-28 21:32N 46°30' W 001°47'0 0.0
2016-Jun-28 20:32N 46°30' W 001°47'0 0.0
2016-Jun-28 19:29N 46°30' W 001°47'0 0.0
2016-Jun-28 18:32N 46°30' W 001°47'0 0.0
2016-Jun-28 17:32N 46°30' W 001°47'0 0.0
2016-Jun-28 16:32N 46°30' W 001°47'0 0.0
2016-Jun-28 15:32N 46°30' W 001°47'0 0.0
2016-Jun-28 14:32N 46°30' W 001°47'0 0.0
2016-Jun-28 13:33N 46°30' W 001°47'6 6.1
2016-Jun-28 12:33N 46°32' W 001°56'8 0.7
2016-Jun-28 02:08N 46°36' W 002°05'610.1
2016-Jun-28 01:33N 46°33' W 001°58'8 8.1
2016-Jun-28 00:33N 46°29' W 001°48'0 0.5
2016-Jun-27 23:33N 46°30' W 001°47'0 0.0
2016-Jun-27 22:33N 46°30' W 001°47'0 0.0
2016-Jun-27 21:33N 46°30' W 001°47'0 0.0
2016-Jun-27 20:33N 46°30' W 001°47'0 0.0
2016-Jun-27 19:33N 46°30' W 001°47'0 0.0
2016-Jun-27 18:33N 46°30' W 001°47'0 0.0
2016-Jun-27 17:33N 46°30' W 001°47'0 0.0
2016-Jun-27 16:33N 46°30' W 001°47'0 0.0
2016-Jun-27 15:33N 46°30' W 001°47'0 0.0
2016-Jun-27 14:32N 46°30' W 001°47'0 0.0
2016-Jun-27 13:32N 46°30' W 001°47'0 0.0
2016-Jun-27 12:31N 46°30' W 001°47'0 0.0
2016-Jun-27 11:31N 46°30' W 001°47'0 0.0
2016-Jun-27 10:31N 46°30' W 001°47'0 0.0
2016-Jun-27 09:31N 46°30' W 001°47'  
2016-Jun-24 14:10N 46°30' W 001°47'22 0.5
2016-Jun-22 13:33N 46°47' W 002°09'1 0.4
2016-Jun-22 11:11N 46°47' W 002°08'0 0.0
2016-Jun-22 10:14N 46°47' W 002°08'0 0.0
2016-Jun-22 08:29N 46°47' W 002°08'0 0.0
2016-Jun-22 07:26N 46°47' W 002°08'0 0.0
2016-Jun-22 06:29N 46°47' W 002°08'0 0.0
2016-Jun-22 05:31N 46°47' W 002°08'8 0.4
2016-Jun-21 11:33N 46°41' W 002°01'9 9.3
2016-Jun-21 10:33N 46°33' W 001°54'6 5.8
2016-Jun-21 09:33N 46°30' W 001°47'  
Track history (hours):
 
Tides and Currents Weather Stations Pressure Air Temp Water Temp Dewpoint Dewpoint Depression Visibility Wind Speed Wind Dir Waves Ship Positions

Miniplon

Last reported at 2016-Jun-29 23:31 UTC. Time now 2016-Jun-29 23:46 UTC.
Position N 46°30' W 001°47'.

Type: SAR. MMSI: 228024600.

Date/timePositionNaut miles runAvg speedWind from/ knotsBaromVisibWave heightAir tempDewpointWater temp
2016-Jun-29 23:31N 46°30' W 001°47'0 0.0
2016-Jun-29 22:31N 46°30' W 001°47'0 0.0
2016-Jun-29 21:31N 46°30' W 001°47'0 0.0
2016-Jun-29 20:31N 46°30' W 001°47'0 0.0
2016-Jun-29 19:31N 46°30' W 001°47'0 0.0
2016-Jun-29 18:31N 46°30' W 001°47'0 0.0
2016-Jun-29 17:31N 46°30' W 001°47'0 0.0
2016-Jun-29 16:31N 46°30' W 001°47'0 0.0
2016-Jun-29 15:31N 46°30' W 001°47'0 0.0
2016-Jun-29 14:31N 46°30' W 001°47'0 0.0
2016-Jun-29 13:31N 46°30' W 001°47'0 0.0
2016-Jun-29 12:31N 46°30' W 001°47'0 0.0
2016-Jun-29 11:31N 46°30' W 001°47'0 0.0
2016-Jun-29 10:31N 46°30' W 001°47'0 0.0
2016-Jun-29 09:28N 46°30' W 001°47'0 0.0
2016-Jun-29 08:31N 46°30' W 001°47'0 0.0
2016-Jun-29 07:31N 46°30' W 001°47'0 0.0
2016-Jun-29 06:25N 46°30' W 001°47'0 0.0
2016-Jun-29 05:31N 46°30' W 001°47'0 0.0
2016-Jun-29 04:31N 46°30' W 001°47'0 0.0
2016-Jun-29 03:31N 46°30' W 001°47'0 0.0
2016-Jun-29 02:32N 46°30' W 001°47'0 0.0
2016-Jun-29 01:32N 46°30' W 001°47'0 0.0
2016-Jun-29 00:32N 46°30' W 001°47'0 0.0
2016-Jun-28 23:32N 46°30' W 001°47'0 0.0
2016-Jun-28 22:32N 46°30' W 001°47'0 0.0
2016-Jun-28 21:32N 46°30' W 001°47'0 0.0
2016-Jun-28 20:32N 46°30' W 001°47'0 0.0
2016-Jun-28 19:29N 46°30' W 001°47'0 0.0
2016-Jun-28 18:32N 46°30' W 001°47'0 0.0
2016-Jun-28 17:32N 46°30' W 001°47'0 0.0
2016-Jun-28 16:32N 46°30' W 001°47'0 0.0
2016-Jun-28 15:32N 46°30' W 001°47'0 0.0
2016-Jun-28 14:32N 46°30' W 001°47'0 0.0
2016-Jun-28 13:33N 46°30' W 001°47'6 6.1
2016-Jun-28 12:33N 46°32' W 001°56'8 0.7
2016-Jun-28 02:08N 46°36' W 002°05'610.1
2016-Jun-28 01:33N 46°33' W 001°58'8 8.1
2016-Jun-28 00:33N 46°29' W 001°48'0 0.5
2016-Jun-27 23:33N 46°30' W 001°47'0 0.0
2016-Jun-27 22:33N 46°30' W 001°47'0 0.0
2016-Jun-27 21:33N 46°30' W 001°47'0 0.0
2016-Jun-27 20:33N 46°30' W 001°47'0 0.0
2016-Jun-27 19:33N 46°30' W 001°47'0 0.0
2016-Jun-27 18:33N 46°30' W 001°47'0 0.0
2016-Jun-27 17:33N 46°30' W 001°47'0 0.0
2016-Jun-27 16:33N 46°30' W 001°47'0 0.0
2016-Jun-27 15:33N 46°30' W 001°47'0 0.0
2016-Jun-27 14:32N 46°30' W 001°47'0 0.0
2016-Jun-27 13:32N 46°30' W 001°47'0 0.0
2016-Jun-27 12:31N 46°30' W 001°47'0 0.0
2016-Jun-27 11:31N 46°30' W 001°47'0 0.0
2016-Jun-27 10:31N 46°30' W 001°47'0 0.0
2016-Jun-27 09:31N 46°30' W 001°47'  
2016-Jun-24 14:10N 46°30' W 001°47'22 0.5
2016-Jun-22 13:33N 46°47' W 002°09'1 0.4
2016-Jun-22 11:11N 46°47' W 002°08'0 0.0
2016-Jun-22 10:14N 46°47' W 002°08'0 0.0
2016-Jun-22 08:29N 46°47' W 002°08'0 0.0
2016-Jun-22 07:26N 46°47' W 002°08'0 0.0
2016-Jun-22 06:29N 46°47' W 002°08'0 0.0
2016-Jun-22 05:31N 46°47' W 002°08'8 0.4
2016-Jun-21 11:33N 46°41' W 002°01'9 9.3
2016-Jun-21 10:33N 46°33' W 001°54'6 5.8
2016-Jun-21 09:33N 46°30' W 001°47'  

Dump ship's entire track history